createdAt,value
2022-09-26T00:01:23.118Z,99214.00
2022-09-26T00:03:56.303Z,99211.38
2022-09-26T00:06:24.197Z,99207.91
2022-09-26T00:08:51.797Z,99212.22
2022-09-26T00:11:21.637Z,99200.16
2022-09-26T00:13:52.472Z,99191.53
2022-09-26T00:16:20.344Z,99194.97
2022-09-26T00:18:52.164Z,99190.63
2022-09-26T00:21:20.226Z,99187.13
2022-09-26T00:23:47.953Z,99190.53
2022-09-26T00:26:16.674Z,99187.06
2022-09-26T00:28:43.778Z,99186.16
2022-09-26T00:31:15.135Z,99170.53
2022-09-26T00:33:42.326Z,99181.66
2022-09-26T00:36:09.324Z,99179.03
2022-09-26T00:38:36.817Z,99173.78
2022-09-26T00:41:04.927Z,99172.00
2022-09-26T00:43:35.429Z,99172.78
2022-09-26T00:46:30.142Z,99166.63
2022-09-26T00:49:22.467Z,99157.91
2022-09-26T00:52:02.245Z,99151.78
2022-09-26T00:54:30.205Z,99151.81
2022-09-26T00:57:00.554Z,99155.22
2022-09-26T00:59:31.554Z,99140.50
2022-09-26T01:02:00.724Z,99134.41
2022-09-26T01:04:29.735Z,99131.78
2022-09-26T01:07:02.113Z,99134.34
2022-09-26T01:09:29.682Z,99136.94
2022-09-26T01:11:57.126Z,99122.22
2022-09-26T01:14:24.628Z,99123.97
2022-09-26T01:16:53.137Z,99123.06
2022-09-26T01:19:50.955Z,99118.66
2022-09-26T01:22:36.971Z,99117.72
2022-09-26T01:25:22.494Z,99119.34
2022-09-26T01:28:26.816Z,99117.53
2022-09-26T01:31:05.598Z,99116.50
2022-09-26T01:33:48.028Z,99115.53
2022-09-26T01:36:39.338Z,99116.38
2022-09-26T01:39:39.255Z,99116.25
2022-09-26T01:42:26.257Z,99110.16
2022-09-26T01:44:56.187Z,99109.22
2022-09-26T01:47:29.566Z,99104.81
2022-09-26T01:50:01.402Z,99103.94
2022-09-26T01:52:34.413Z,99102.16
2022-09-26T01:55:17.286Z,99104.75
2022-09-26T01:57:52.297Z,99102.97
2022-09-26T02:00:19.806Z,99094.28
2022-09-26T02:02:49.406Z,99096.91
2022-09-26T02:05:36.136Z,99089.97
2022-09-26T02:08:06.207Z,99083.94
2022-09-26T02:10:38.921Z,99090.88
2022-09-26T02:13:14.198Z,99088.28
2022-09-26T02:15:44.847Z,99086.53
2022-09-26T02:18:32.133Z,99084.72
2022-09-26T02:21:03.639Z,99077.69
2022-09-26T02:23:31.117Z,99075.94
2022-09-26T02:25:58.412Z,99068.97
2022-09-26T02:28:25.334Z,99065.50
2022-09-26T02:30:53.788Z,99060.25
2022-09-26T02:33:21.705Z,99067.16
2022-09-26T02:35:54.915Z,99059.44
2022-09-26T02:38:25.655Z,99067.28
2022-09-26T02:41:07.790Z,99064.72
2022-09-26T02:44:13.202Z,99070.81
2022-09-26T02:47:11.008Z,99067.34
2022-09-26T02:50:04.116Z,99068.25
2022-09-26T02:53:08.057Z,99056.13
2022-09-26T02:55:48.344Z,99062.25
2022-09-26T02:58:27.834Z,99050.22
2022-09-26T03:01:19.904Z,99048.59
2022-09-26T03:04:22.535Z,99038.31
2022-09-26T03:06:51.786Z,99042.69
2022-09-26T03:09:19.720Z,99042.75
2022-09-26T03:11:47.753Z,99039.28
2022-09-26T03:14:15.815Z,99030.63
2022-09-26T03:16:44.671Z,99031.38
2022-09-26T03:19:16.202Z,99020.84
2022-09-26T03:21:45.304Z,99025.09
2022-09-26T03:24:13.606Z,99023.28
2022-09-26T03:26:42.050Z,99022.38
2022-09-26T03:29:09.680Z,99022.28
2022-09-26T03:31:36.884Z,99013.56
2022-09-26T03:34:06.674Z,99011.69
2022-09-26T03:36:33.815Z,99000.28
2022-09-26T03:39:02.737Z,99004.41
2022-09-26T03:41:36.203Z,98996.53
2022-09-26T03:44:22.280Z,98998.25
2022-09-26T03:47:07.436Z,98991.28
2022-09-26T03:49:39.732Z,98987.78
2022-09-26T03:52:10.839Z,98996.47
2022-09-26T03:54:38.486Z,98990.44
2022-09-26T03:57:05.471Z,98990.44
2022-09-26T03:59:36.121Z,98984.38
2022-09-26T04:02:03.865Z,98988.69
2022-09-26T04:04:32.319Z,98991.28
2022-09-26T04:07:00.217Z,98981.72
2022-09-26T04:09:27.602Z,98987.72
2022-09-26T04:11:55.236Z,98983.41
2022-09-26T04:14:22.532Z,98979.91
2022-09-26T04:16:55.444Z,98991.16
2022-09-26T04:19:26.842Z,98986.84
2022-09-26T04:21:53.921Z,98987.69
2022-09-26T04:24:21.625Z,98980.75
2022-09-26T04:26:48.737Z,98989.38
2022-09-26T04:29:16.656Z,98982.41
2022-09-26T04:32:02.410Z,98986.69
2022-09-26T04:34:40.037Z,98987.50
2022-09-26T04:37:10.248Z,98981.34
2022-09-26T04:39:37.312Z,98977.72
2022-09-26T04:42:04.901Z,98981.97
2022-09-26T04:44:32.897Z,98969.72
2022-09-26T04:46:59.897Z,98978.28
2022-09-26T04:49:43.815Z,98970.44
2022-09-26T04:52:10.825Z,98960.88
2022-09-26T04:54:38.556Z,98961.72
2022-09-26T04:57:06.064Z,98960.78
2022-09-26T04:59:33.065Z,98964.16
2022-09-26T05:02:04.096Z,98958.81
2022-09-26T05:04:40.935Z,98964.84
2022-09-26T05:07:08.090Z,98965.63
2022-09-26T05:09:36.217Z,98967.28
2022-09-26T05:12:18.358Z,98962.03
2022-09-26T05:14:51.055Z,98962.88
2022-09-26T05:17:18.114Z,98960.13
2022-09-26T05:19:46.763Z,98960.88
2022-09-26T05:22:30.290Z,98969.34
2022-09-26T05:25:16.152Z,98964.91
2022-09-26T05:27:43.161Z,98953.47
2022-09-26T05:30:12.717Z,98954.22
2022-09-26T05:32:40.307Z,98942.06
2022-09-26T05:35:08.852Z,98938.50
2022-09-26T05:37:40.677Z,98937.53
2022-09-26T05:40:26.903Z,98927.06
2022-09-26T05:43:01.485Z,98929.66
2022-09-26T05:45:31.390Z,98928.84
2022-09-26T05:48:01.186Z,98930.59
2022-09-26T05:50:28.284Z,98930.53
2022-09-26T05:52:59.330Z,98940.94
2022-09-26T05:55:27.391Z,98928.75
2022-09-26T05:58:06.402Z,98931.25
2022-09-26T06:01:04.483Z,98926.03
2022-09-26T06:03:36.166Z,98934.59
2022-09-26T06:06:12.209Z,98929.22
2022-09-26T06:08:40.226Z,98927.34
2022-09-26T06:11:30.985Z,98925.34
2022-09-26T06:14:01.001Z,98925.16
2022-09-26T06:16:28.989Z,98927.53
2022-09-26T06:18:56.248Z,98924.84
2022-09-26T06:21:24.122Z,98923.91
2022-09-26T06:23:55.378Z,98919.41
2022-09-26T06:26:25.182Z,98922.72
2022-09-26T06:28:58.332Z,98921.66
2022-09-26T06:31:27.436Z,98932.66
2022-09-26T06:34:13.359Z,98927.25
2022-09-26T06:37:02.154Z,98928.84
2022-09-26T06:39:35.961Z,98928.69
2022-09-26T06:42:08.170Z,98951.94
2022-09-26T06:44:48.552Z,98948.31
2022-09-26T06:47:34.993Z,98949.16
2022-09-26T06:50:24.620Z,98947.28
2022-09-26T06:52:55.065Z,98946.25
2022-09-26T06:55:24.251Z,98945.88
2022-09-26T06:57:51.575Z,98943.72
2022-09-26T07:00:19.126Z,98943.44
2022-09-26T07:03:05.802Z,98950.16
2022-09-26T07:05:54.725Z,98940.44
2022-09-26T07:08:37.307Z,98941.19
2022-09-26T07:11:31.226Z,98933.94
2022-09-26T07:13:56.753Z,98927.56
2022-09-26T07:16:24.255Z,98929.16
2022-09-26T07:18:58.752Z,98920.41
2022-09-26T07:21:37.233Z,98915.81
2022-09-26T07:24:14.301Z,98920.88
2022-09-26T07:26:42.756Z,98919.06
2022-09-26T07:29:10.553Z,98923.19
2022-09-26T07:31:38.589Z,98916.63
2022-09-26T07:34:05.754Z,98913.28
2022-09-26T07:36:32.867Z,98916.81
2022-09-26T07:39:01.336Z,98912.81
2022-09-26T07:41:31.302Z,98915.69
2022-09-26T07:47:05.756Z,98914.19
2022-09-26T07:49:51.385Z,98912.31
2022-09-26T07:52:37.397Z,98909.31
2022-09-26T07:55:26.979Z,98913.78
2022-09-26T07:58:12.565Z,98910.22
2022-09-26T08:00:58.023Z,98906.78
2022-09-26T08:03:48.223Z,98906.19
2022-09-26T08:06:33.261Z,98902.31
2022-09-26T08:09:00.712Z,98901.53
2022-09-26T08:11:46.072Z,98904.00
2022-09-26T08:14:33.382Z,98899.97
2022-09-26T08:17:14.628Z,98902.25
2022-09-26T08:19:41.982Z,98902.50
2022-09-26T08:22:09.412Z,98907.06
2022-09-26T08:24:36.604Z,98894.06
2022-09-26T08:27:23.407Z,98897.66
2022-09-26T08:29:51.672Z,98895.66
2022-09-26T08:32:20.033Z,98898.25
2022-09-26T08:34:47.721Z,98900.25
2022-09-26T08:37:33.273Z,98900.72
2022-09-26T08:40:18.804Z,98909.47
2022-09-26T08:43:20.032Z,98910.94
2022-09-26T08:46:13.394Z,98915.41
2022-09-26T08:49:14.925Z,98915.84
2022-09-26T08:51:46.295Z,98915.84
2022-09-26T08:54:35.343Z,98911.97
2022-09-26T08:57:31.136Z,98914.19
2022-09-26T08:59:58.596Z,98915.78
2022-09-26T09:02:33.424Z,98916.63
2022-09-26T09:05:23.892Z,98916.31
2022-09-26T09:07:54.103Z,98919.88
2022-09-26T09:10:38.673Z,98923.06
2022-09-26T09:13:37.752Z,98916.28
2022-09-26T09:16:52.173Z,98922.75
2022-09-26T09:20:13.314Z,98915.00
2022-09-26T09:23:14.333Z,98925.63
2022-09-26T09:29:10.663Z,98925.22
2022-09-26T09:31:44.302Z,98919.88
2022-09-26T09:34:29.434Z,98916.53
2022-09-26T09:37:28.654Z,98925.97
2022-09-26T09:40:36.673Z,98927.41
2022-09-26T09:43:13.693Z,98918.50
2022-09-26T09:45:51.154Z,98926.25
2022-09-26T09:48:18.932Z,98929.59
2022-09-26T09:51:11.154Z,98926.50
2022-09-26T09:54:08.489Z,98926.81
2022-09-26T09:57:01.460Z,98925.53
2022-09-26T10:00:05.896Z,98923.97
2022-09-26T10:03:02.420Z,98921.72
2022-09-26T10:05:44.444Z,98918.16
2022-09-26T10:08:42.723Z,98922.91
2022-09-26T10:11:43.444Z,98928.06
2022-09-26T10:14:43.008Z,98922.97
2022-09-26T10:17:29.671Z,98920.03
2022-09-26T10:20:35.513Z,98924.66
2022-09-26T10:23:06.355Z,98926.56
2022-09-26T10:25:33.489Z,98925.97
2022-09-26T10:28:05.354Z,98932.78
2022-09-26T10:30:48.209Z,98926.91
2022-09-26T10:33:29.583Z,98926.69
2022-09-26T10:36:20.463Z,98920.50
2022-09-26T10:39:19.072Z,98913.63
2022-09-26T10:41:49.352Z,98907.84
2022-09-26T10:44:34.342Z,98916.09
2022-09-26T10:47:08.419Z,98915.06
2022-09-26T10:50:14.868Z,98904.72
2022-09-26T10:53:09.040Z,98907.03
2022-09-26T10:55:44.330Z,98911.88
2022-09-26T10:58:30.212Z,98908.25
2022-09-26T11:01:04.277Z,98902.66
2022-09-26T11:03:40.470Z,98912.03
2022-09-26T11:06:26.073Z,98907.16
2022-09-26T11:08:59.402Z,98907.09
2022-09-26T11:11:48.133Z,98906.31
2022-09-26T11:14:28.050Z,98911.84
2022-09-26T11:17:08.952Z,98917.78
2022-09-26T11:19:44.665Z,98908.69
2022-09-26T11:22:30.068Z,98903.88
2022-09-26T11:25:22.392Z,98913.38
2022-09-26T11:28:07.894Z,98912.91
2022-09-26T11:30:59.032Z,98914.94
2022-09-26T11:33:28.542Z,98914.59
2022-09-26T11:36:18.121Z,98913.56
2022-09-26T11:38:47.897Z,98909.69
2022-09-26T11:41:42.195Z,98914.09
2022-09-26T11:44:30.279Z,98915.66
2022-09-26T11:47:38.552Z,98910.00
2022-09-26T11:50:35.725Z,98908.16
2022-09-26T11:53:25.238Z,98906.31
2022-09-26T11:56:29.945Z,98917.00
2022-09-26T11:58:59.305Z,98912.13
2022-09-26T12:01:27.462Z,98909.19
2022-09-26T12:04:03.366Z,98912.69
2022-09-26T12:06:35.190Z,98903.72
2022-09-26T12:09:33.804Z,98907.31
2022-09-26T12:12:09.874Z,98911.13
2022-09-26T12:14:45.622Z,98912.53
2022-09-26T12:17:36.402Z,98907.78
2022-09-26T12:20:17.023Z,98910.19
2022-09-26T12:23:00.480Z,98905.63
2022-09-26T12:25:39.830Z,98912.25
2022-09-26T12:28:25.636Z,98908.34
2022-09-26T12:31:21.203Z,98908.97
2022-09-26T12:34:02.173Z,98908.88
2022-09-26T12:37:06.913Z,98907.63
2022-09-26T12:39:52.359Z,98908.97
2022-09-26T12:42:37.638Z,98899.97
2022-09-26T12:45:28.147Z,98895.84
2022-09-26T12:48:07.582Z,98898.38
2022-09-26T12:50:53.429Z,98901.19
2022-09-26T12:53:24.433Z,98891.22
2022-09-26T12:56:11.271Z,98893.38
2022-09-26T12:58:55.951Z,98886.50
2022-09-26T13:01:28.920Z,98880.13
2022-09-26T13:04:17.917Z,98880.69
2022-09-26T13:07:17.942Z,98886.19
2022-09-26T13:10:10.664Z,98874.84
2022-09-26T13:12:50.092Z,98880.69
2022-09-26T13:15:35.489Z,98882.91
2022-09-26T13:18:26.518Z,98885.53
2022-09-26T13:21:08.973Z,98879.44
2022-09-26T13:23:37.867Z,98885.88
2022-09-26T13:26:45.340Z,98880.59
2022-09-26T13:29:33.814Z,98889.06
2022-09-26T13:32:35.916Z,98880.75
2022-09-26T13:35:13.558Z,98883.75
2022-09-26T13:38:20.816Z,98875.81
2022-09-26T13:41:08.840Z,98882.94
2022-09-26T13:44:05.145Z,98884.09
2022-09-26T13:46:50.683Z,98883.63
2022-09-26T13:49:43.022Z,98883.19
2022-09-26T13:52:31.634Z,98876.47
2022-09-26T13:55:05.174Z,98879.31
2022-09-26T13:57:35.343Z,98879.81
2022-09-26T14:00:17.035Z,98875.09
2022-09-26T14:03:09.690Z,98874.47
2022-09-26T14:05:43.717Z,98873.56
2022-09-26T14:08:49.158Z,98871.84
2022-09-26T14:11:18.964Z,98871.09
2022-09-26T14:13:47.483Z,98876.34
2022-09-26T14:16:34.325Z,98875.31
2022-09-26T14:19:07.477Z,98874.56
2022-09-26T14:21:40.189Z,98871.09
2022-09-26T14:24:38.015Z,98867.97
2022-09-26T14:27:13.822Z,98869.66
2022-09-26T14:29:42.451Z,98859.88
2022-09-26T14:32:12.367Z,98866.78
2022-09-26T14:34:57.435Z,98861.53
2022-09-26T14:37:24.510Z,98867.66
2022-09-26T14:40:11.961Z,98861.78
2022-09-26T14:42:44.751Z,98874.16
2022-09-26T14:45:17.450Z,98869.13
2022-09-26T14:48:06.086Z,98864.03
2022-09-26T14:50:41.529Z,98869.28
2022-09-26T14:53:21.072Z,98872.91
2022-09-26T14:56:14.377Z,98867.75
2022-09-26T14:58:44.370Z,98863.47
2022-09-26T15:01:18.147Z,98867.03
2022-09-26T15:04:05.077Z,98866.47
2022-09-26T15:06:42.883Z,98872.78
2022-09-26T15:09:12.126Z,98865.13
2022-09-26T15:11:48.670Z,98866.22
2022-09-26T15:14:39.390Z,98860.03
2022-09-26T15:17:07.000Z,98858.41
2022-09-26T15:19:39.771Z,98865.59
2022-09-26T15:22:13.195Z,98865.78
2022-09-26T15:24:40.411Z,98857.22
2022-09-26T15:27:29.245Z,98855.72
2022-09-26T15:30:10.912Z,98858.50
2022-09-26T15:32:38.723Z,98844.81
2022-09-26T15:35:06.401Z,98845.09
2022-09-26T15:37:35.225Z,98845.38
2022-09-26T15:40:23.515Z,98843.03
2022-09-26T15:43:21.752Z,98842.28
2022-09-26T15:45:50.197Z,98835.72
2022-09-26T15:48:20.409Z,98841.09
2022-09-26T15:50:51.803Z,98845.69
2022-09-26T15:53:25.164Z,98851.47
2022-09-26T15:56:06.702Z,98851.03
2022-09-26T15:58:47.023Z,98849.69
2022-09-26T16:01:16.838Z,98858.44
2022-09-26T16:04:22.911Z,98854.97
2022-09-26T16:07:22.705Z,98849.81
2022-09-26T16:09:51.834Z,98844.75
2022-09-26T16:12:23.563Z,98845.03
2022-09-26T16:15:04.513Z,98846.03
2022-09-26T16:17:49.393Z,98836.53
2022-09-26T16:20:16.467Z,98844.44
2022-09-26T16:22:51.499Z,98842.09
2022-09-26T16:25:18.980Z,98839.59
2022-09-26T16:27:47.187Z,98832.66
2022-09-26T16:30:30.262Z,98841.72
2022-09-26T16:33:16.893Z,98838.88
2022-09-26T16:35:46.246Z,98844.56
2022-09-26T16:38:35.010Z,98837.91
2022-09-26T16:41:31.384Z,98834.94
2022-09-26T16:44:23.274Z,98832.25
2022-09-26T16:46:54.608Z,98837.28
2022-09-26T16:49:46.334Z,98840.69
2022-09-26T16:52:27.066Z,98840.69
2022-09-26T16:54:56.312Z,98837.28
2022-09-26T16:57:26.788Z,98836.56
2022-09-26T17:00:14.559Z,98832.19
2022-09-26T17:02:42.224Z,98827.94
2022-09-26T17:05:20.807Z,98828.97
2022-09-26T17:07:49.252Z,98832.56
2022-09-26T17:10:18.429Z,98834.34
2022-09-26T17:12:51.670Z,98836.03
2022-09-26T17:15:24.409Z,98833.50
2022-09-26T17:17:54.284Z,98831.84
2022-09-26T17:20:22.393Z,98835.53
2022-09-26T17:22:49.952Z,98834.81
2022-09-26T17:25:19.014Z,98835.72
2022-09-26T17:27:47.777Z,98830.56
2022-09-26T17:30:17.537Z,98833.25
2022-09-26T17:32:51.438Z,98829.81
2022-09-26T17:35:29.570Z,98827.28
2022-09-26T17:37:56.958Z,98830.22
2022-09-26T17:40:30.369Z,98826.75
2022-09-26T17:43:00.340Z,98826.84
2022-09-26T17:45:29.782Z,98823.38
2022-09-26T17:47:59.207Z,98823.25
2022-09-26T17:50:29.324Z,98825.81
2022-09-26T17:52:58.203Z,98819.69
2022-09-26T17:55:25.705Z,98822.41
2022-09-26T17:57:54.446Z,98828.63
2022-09-26T18:00:21.475Z,98822.66
2022-09-26T18:02:57.461Z,98821.06
2022-09-26T18:05:28.863Z,98825.63
2022-09-26T18:08:01.413Z,98824.06
2022-09-26T18:10:32.045Z,98821.59
2022-09-26T18:13:03.320Z,98820.84
2022-09-26T18:15:31.092Z,98813.16
2022-09-26T18:18:02.640Z,98814.09
2022-09-26T18:20:39.317Z,98810.72
2022-09-26T18:23:13.924Z,98803.66
2022-09-26T18:25:43.803Z,98807.00
2022-09-26T18:28:13.735Z,98801.09
2022-09-26T18:30:42.853Z,98802.94
2022-09-26T18:33:11.397Z,98805.88
2022-09-26T18:35:40.032Z,98796.53
2022-09-26T18:38:12.065Z,98790.56
2022-09-26T18:41:00.772Z,98788.69
2022-09-26T18:43:32.030Z,98788.72
2022-09-26T18:45:59.361Z,98789.41
2022-09-26T18:48:30.719Z,98790.16
2022-09-26T18:50:57.905Z,98787.41
2022-09-26T18:53:30.533Z,98785.69
2022-09-26T18:56:17.343Z,98787.41
2022-09-26T18:58:47.924Z,98781.31
2022-09-26T19:01:38.548Z,98785.69
2022-09-26T19:04:08.314Z,98783.88
2022-09-26T19:06:37.483Z,98785.63
2022-09-26T19:09:07.324Z,98786.53
2022-09-26T19:11:35.886Z,98786.53
2022-09-26T19:14:16.361Z,98790.03
2022-09-26T19:16:46.262Z,98789.16
2022-09-26T19:19:13.974Z,98790.84
2022-09-26T19:22:01.446Z,98793.53
2022-09-26T19:24:45.923Z,98798.91
2022-09-26T19:27:30.088Z,98800.59
2022-09-26T19:29:59.837Z,98798.06
2022-09-26T19:32:37.346Z,98792.94
2022-09-26T19:35:26.239Z,98798.94
2022-09-26T19:37:53.625Z,98792.03
2022-09-26T19:40:22.001Z,98792.09
2022-09-26T19:42:49.457Z,98792.09
2022-09-26T19:45:18.421Z,98789.47
2022-09-26T19:47:51.942Z,98786.94
2022-09-26T19:50:22.337Z,98793.03
2022-09-26T19:52:51.551Z,98793.09
2022-09-26T19:55:22.021Z,98794.09
2022-09-26T19:57:49.145Z,98792.47
2022-09-26T20:00:19.403Z,98787.50
2022-09-26T20:02:48.037Z,98784.94
2022-09-26T20:05:24.029Z,98781.63
2022-09-26T20:07:51.957Z,98780.91
2022-09-26T20:10:25.451Z,98782.78
2022-09-26T20:12:52.660Z,98774.16
2022-09-26T20:15:22.514Z,98773.31
2022-09-26T20:17:49.840Z,98777.66
2022-09-26T20:20:18.352Z,98772.44
2022-09-26T20:22:45.916Z,98769.94
2022-09-26T20:25:21.474Z,98766.56
2022-09-26T20:27:51.846Z,98765.66
2022-09-26T20:30:39.372Z,98757.13
2022-09-26T20:33:06.495Z,98757.22
2022-09-26T20:35:36.815Z,98751.16
2022-09-26T20:38:11.168Z,98757.28
2022-09-26T20:40:39.853Z,98749.41
2022-09-26T20:43:10.406Z,98753.75
2022-09-26T20:45:40.912Z,98746.00
2022-09-26T20:48:08.852Z,98747.75
2022-09-26T20:50:38.722Z,98739.97
2022-09-26T20:53:23.141Z,98748.75
2022-09-26T20:55:51.382Z,98745.38
2022-09-26T20:58:18.943Z,98747.13
2022-09-26T21:00:46.293Z,98754.06
2022-09-26T21:03:21.993Z,98743.78
2022-09-26T21:05:49.175Z,98753.34
2022-09-26T21:08:36.421Z,98746.31
2022-09-26T21:11:03.580Z,98744.56
2022-09-26T21:13:30.464Z,98740.19
2022-09-26T21:15:57.391Z,98738.50
2022-09-26T21:18:26.486Z,98738.56
2022-09-26T21:20:54.517Z,98735.25
2022-09-26T21:23:42.147Z,98740.53
2022-09-26T21:26:18.279Z,98741.53
2022-09-26T21:28:45.669Z,98735.47
2022-09-26T21:31:26.276Z,98735.53
2022-09-26T21:33:54.045Z,98738.06
2022-09-26T21:36:21.445Z,98734.72
2022-09-26T21:38:51.162Z,98733.06
2022-09-26T21:41:18.820Z,98735.69
2022-09-26T21:43:49.505Z,98733.94
2022-09-26T21:46:17.633Z,98732.09
2022-09-26T21:48:44.767Z,98729.63
2022-09-26T21:51:13.171Z,98722.75
2022-09-26T21:53:45.951Z,98720.97
2022-09-26T21:56:21.960Z,98717.47
2022-09-26T21:58:49.200Z,98719.19
2022-09-26T22:01:16.310Z,98716.66
2022-09-26T22:03:43.316Z,98718.50
2022-09-26T22:06:10.710Z,98722.88
2022-09-26T22:08:39.392Z,98720.28
2022-09-26T22:11:09.046Z,98710.75
2022-09-26T22:13:37.113Z,98715.13
2022-09-26T22:16:08.234Z,98705.59
2022-09-26T22:18:35.894Z,98706.47
2022-09-26T22:21:04.877Z,98709.00
2022-09-26T22:23:32.441Z,98705.47
2022-09-26T22:25:59.646Z,98698.50
2022-09-26T22:28:27.185Z,98701.19
2022-09-26T22:30:54.871Z,98698.63
2022-09-26T22:33:22.786Z,98694.28
2022-09-26T22:35:50.886Z,98690.81
2022-09-26T22:38:21.035Z,98689.13
2022-09-26T22:41:03.142Z,98681.38
2022-09-26T22:43:31.377Z,98683.94
2022-09-26T22:46:06.226Z,98684.84
2022-09-26T22:48:38.404Z,98683.09
2022-09-26T22:51:06.279Z,98678.72
2022-09-26T22:53:35.411Z,98673.63
2022-09-26T22:56:05.449Z,98670.13
2022-09-26T22:58:36.776Z,98673.56
2022-09-26T23:01:10.718Z,98671.81
2022-09-26T23:03:38.466Z,98662.28
2022-09-26T23:06:06.093Z,98667.50
2022-09-26T23:08:34.104Z,98657.91
2022-09-26T23:11:02.818Z,98654.47
2022-09-26T23:13:31.577Z,98659.63
2022-09-26T23:16:06.602Z,98650.94
2022-09-26T23:18:35.730Z,98655.25
2022-09-26T23:21:13.533Z,98658.78
2022-09-26T23:23:42.934Z,98653.56
2022-09-26T23:26:23.494Z,98644.09
2022-09-26T23:28:51.691Z,98644.03
2022-09-26T23:31:19.282Z,98641.53
2022-09-26T23:33:46.704Z,98640.69
2022-09-26T23:36:13.965Z,98636.44
2022-09-26T23:38:41.438Z,98641.72
2022-09-26T23:41:09.521Z,98634.84
2022-09-26T23:43:36.823Z,98634.00
2022-09-26T23:46:03.938Z,98626.16
2022-09-26T23:48:31.033Z,98627.06
2022-09-26T23:50:58.217Z,98622.81
2022-09-26T23:53:25.294Z,98613.44
2022-09-26T23:55:52.958Z,98621.47
2022-09-26T23:58:19.904Z,98616.34
